Terminal Aerodrome Forecast
Issued by NWS Austin/San Antonio, TX

Home | Current Version | Previous Version | Text Only | Print | Product List | Glossary On
Versions: 1 2 3 4 5 6 7 8 9 10 11 12 13 14 15 16 17 18 19 20 21 22 23 24 25 26 27 28
000
FTUS44 KEWX 261124
TAFDRT
TAF
KDRT 261124Z 2612/2712 34008KT 6SM BR VCSH BKN012
     FM261300 35007KT 3SM BR VCSH OVC007
     FM262000 34012G22KT P6SM OVC010=

USA.gov is the U.S. government's official web portal to all federal, state and local government web resources and services.